sensor_id;sensor_type;location;lat;lon;timestamp;pressure;altitude;pressure_sealevel;temperature;humidity
59829;BME280;45708;51.848;107.620;2023-07-31T00:04:11;94225.41;;;30.47;51.67
59829;BME280;45708;51.848;107.620;2023-07-31T00:09:12;94244.50;;;31.94;48.02
59829;BME280;45708;51.848;107.620;2023-07-31T00:14:13;94233.97;;;31.59;48.73
59829;BME280;45708;51.848;107.620;2023-07-31T00:19:14;94238.88;;;31.76;48.71
59829;BME280;45708;51.848;107.620;2023-07-31T00:24:14;94212.63;;;33.04;45.75
59829;BME280;45708;51.848;107.620;2023-07-31T00:29:15;94215.50;;;33.33;45.56
59829;BME280;45708;51.848;107.620;2023-07-31T00:34:16;94221.50;;;32.87;45.47
59829;BME280;45708;51.848;107.620;2023-07-31T00:39:18;94221.31;;;32.62;46.04
59829;BME280;45708;51.848;107.620;2023-07-31T00:44:19;94216.94;;;33.09;44.65
59829;BME280;45708;51.848;107.620;2023-07-31T00:49:20;94227.72;;;32.32;45.28
59829;BME280;45708;51.848;107.620;2023-07-31T00:54:22;94220.91;;;31.11;46.63
59829;BME280;45708;51.848;107.620;2023-07-31T00:59:22;94217.59;;;30.46;47.55
59829;BME280;45708;51.848;107.620;2023-07-31T01:04:23;94227.69;;;29.99;47.89
59829;BME280;45708;51.848;107.620;2023-07-31T01:14:31;94224.97;;;29.77;48.01
59829;BME280;45708;51.848;107.620;2023-07-31T01:19:31;94234.47;;;29.63;47.88
59829;BME280;45708;51.848;107.620;2023-07-31T01:30:00;94237.56;;;29.85;47.51
59829;BME280;45708;51.848;107.620;2023-07-31T01:35:04;94243.97;;;29.96;46.98
59829;BME280;45708;51.848;107.620;2023-07-31T01:40:06;94263.91;;;29.81;47.42
59829;BME280;45708;51.848;107.620;2023-07-31T01:45:08;94271.59;;;29.75;47.33
59829;BME280;45708;51.848;107.620;2023-07-31T01:50:09;94257.25;;;30.20;46.73
59829;BME280;45708;51.848;107.620;2023-07-31T01:55:10;94271.56;;;30.37;46.44
59829;BME280;45708;51.848;107.620;2023-07-31T02:00:11;94279.78;;;30.86;45.56
59829;BME280;45708;51.848;107.620;2023-07-31T02:05:12;94275.72;;;30.76;46.20
59829;BME280;45708;51.848;107.620;2023-07-31T02:10:13;94275.63;;;31.22;45.63
59829;BME280;45708;51.848;107.620;2023-07-31T02:15:13;94263.97;;;31.25;45.70
59829;BME280;45708;51.848;107.620;2023-07-31T02:20:14;94257.88;;;31.35;45.26
59829;BME280;45708;51.848;107.620;2023-07-31T02:25:15;94257.78;;;30.75;46.37
59829;BME280;45708;51.848;107.620;2023-07-31T02:30:16;94248.22;;;30.62;46.39
59829;BME280;45708;51.848;107.620;2023-07-31T02:35:17;94248.13;;;30.81;45.68
59829;BME280;45708;51.848;107.620;2023-07-31T02:40:18;94240.50;;;30.91;45.50
59829;BME280;45708;51.848;107.620;2023-07-31T02:45:19;94245.56;;;31.48;44.78
59829;BME280;45708;51.848;107.620;2023-07-31T02:50:19;94240.38;;;31.10;44.90
59829;BME280;45708;51.848;107.620;2023-07-31T02:55:20;94226.03;;;30.37;46.20
59829;BME280;45708;51.848;107.620;2023-07-31T03:00:21;94218.13;;;30.28;46.39
59829;BME280;45708;51.848;107.620;2023-07-31T03:05:22;94219.78;;;30.37;46.28
59829;BME280;45708;51.848;107.620;2023-07-31T03:10:22;94218.44;;;30.50;45.99
59829;BME280;45708;51.848;107.620;2023-07-31T03:15:23;94202.34;;;30.64;45.70
59829;BME280;45708;51.848;107.620;2023-07-31T03:20:24;94209.25;;;31.14;45.23
59829;BME280;45708;51.848;107.620;2023-07-31T03:25:25;94202.09;;;31.66;43.83
59829;BME280;45708;51.848;107.620;2023-07-31T03:30:26;94190.88;;;32.19;43.39
59829;BME280;45708;51.848;107.620;2023-07-31T03:35:27;94194.75;;;32.15;42.90
59829;BME280;45708;51.848;107.620;2023-07-31T03:40:28;94194.00;;;31.77;43.21
59829;BME280;45708;51.848;107.620;2023-07-31T03:45:29;94197.44;;;31.70;42.87
59829;BME280;45708;51.848;107.620;2023-07-31T03:50:30;94198.97;;;31.68;42.97
59829;BME280;45708;51.848;107.620;2023-07-31T03:55:31;94184.13;;;31.65;42.74
59829;BME280;45708;51.848;107.620;2023-07-31T04:00:31;94188.47;;;31.70;42.54
59829;BME280;45708;51.848;107.620;2023-07-31T04:05:32;94177.28;;;31.82;41.66
59829;BME280;45708;51.848;107.620;2023-07-31T04:10:33;94163.38;;;31.98;41.02
59829;BME280;45708;51.848;107.620;2023-07-31T04:15:34;94154.16;;;32.17;39.94
59829;BME280;45708;51.848;107.620;2023-07-31T04:20:35;94165.22;;;32.27;38.72
59829;BME280;45708;51.848;107.620;2023-07-31T04:25:36;94163.56;;;32.19;38.52
59829;BME280;45708;51.848;107.620;2023-07-31T04:30:36;94171.31;;;32.14;37.97
59829;BME280;45708;51.848;107.620;2023-07-31T04:35:37;94182.59;;;31.68;37.94
59829;BME280;45708;51.848;107.620;2023-07-31T04:40:38;94178.78;;;31.42;38.08
59829;BME280;45708;51.848;107.620;2023-07-31T04:45:39;94167.56;;;31.47;37.53
59829;BME280;45708;51.848;107.620;2023-07-31T04:50:40;94183.44;;;31.72;37.00
59829;BME280;45708;51.848;107.620;2023-07-31T04:55:40;94187.97;;;31.61;37.53
59829;BME280;45708;51.848;107.620;2023-07-31T05:00:41;94182.75;;;31.45;38.16
59829;BME280;45708;51.848;107.620;2023-07-31T05:05:42;94173.22;;;31.02;38.80
59829;BME280;45708;51.848;107.620;2023-07-31T05:10:43;94181.94;;;30.58;39.69
59829;BME280;45708;51.848;107.620;2023-07-31T05:15:45;94177.50;;;30.46;39.95
59829;BME280;45708;51.848;107.620;2023-07-31T05:20:45;94165.75;;;30.42;39.80
59829;BME280;45708;51.848;107.620;2023-07-31T05:25:46;94177.38;;;30.62;39.99
59829;BME280;45708;51.848;107.620;2023-07-31T05:30:47;94180.63;;;30.71;39.66
59829;BME280;45708;51.848;107.620;2023-07-31T05:35:48;94177.97;;;30.78;39.38
59829;BME280;45708;51.848;107.620;2023-07-31T05:40:49;94174.34;;;30.67;39.50
59829;BME280;45708;51.848;107.620;2023-07-31T05:45:51;94187.31;;;30.77;39.36
59829;BME280;45708;51.848;107.620;2023-07-31T05:50:52;94182.41;;;30.86;39.12
59829;BME280;45708;51.848;107.620;2023-07-31T05:55:52;94180.53;;;30.64;39.50
59829;BME280;45708;51.848;107.620;2023-07-31T06:00:53;94166.34;;;30.55;40.04
59829;BME280;45708;51.848;107.620;2023-07-31T06:05:54;94139.84;;;30.25;40.48
59829;BME280;45708;51.848;107.620;2023-07-31T06:10:57;94159.69;;;30.26;40.81
59829;BME280;45708;51.848;107.620;2023-07-31T06:15:58;94149.69;;;30.34;40.89
59829;BME280;45708;51.848;107.620;2023-07-31T06:20:58;94170.53;;;30.75;40.12
59829;BME280;45708;51.848;107.620;2023-07-31T06:25:59;94152.53;;;30.67;39.99
59829;BME280;45708;51.848;107.620;2023-07-31T06:31:00;94185.66;;;30.69;40.49
59829;BME280;45708;51.848;107.620;2023-07-31T06:36:02;94198.22;;;30.51;40.42
59829;BME280;45708;51.848;107.620;2023-07-31T06:41:03;94183.84;;;30.27;40.80
59829;BME280;45708;51.848;107.620;2023-07-31T06:46:07;94186.66;;;30.08;40.93
59829;BME280;45708;51.848;107.620;2023-07-31T06:51:07;94181.31;;;30.15;41.44
59829;BME280;45708;51.848;107.620;2023-07-31T06:56:08;94189.06;;;30.40;41.06
59829;BME280;45708;51.848;107.620;2023-07-31T07:01:09;94182.94;;;30.69;40.82
59829;BME280;45708;51.848;107.620;2023-07-31T07:06:11;94200.69;;;31.16;40.73
59829;BME280;45708;51.848;107.620;2023-07-31T07:11:12;94205.47;;;31.23;40.28
59829;BME280;45708;51.848;107.620;2023-07-31T07:16:13;94222.31;;;31.28;40.51
59829;BME280;45708;51.848;107.620;2023-07-31T07:21:14;94234.94;;;31.13;41.32
59829;BME280;45708;51.848;107.620;2023-07-31T07:26:15;94216.09;;;30.48;43.26
59829;BME280;45708;51.848;107.620;2023-07-31T07:31:15;94207.94;;;30.25;43.66
59829;BME280;45708;51.848;107.620;2023-07-31T07:36:16;94198.28;;;30.05;44.47
59829;BME280;45708;51.848;107.620;2023-07-31T07:41:17;94200.28;;;30.35;44.08
59829;BME280;45708;51.848;107.620;2023-07-31T07:46:18;94217.13;;;30.17;44.40
59829;BME280;45708;51.848;107.620;2023-07-31T07:51:19;94203.84;;;30.12;44.83
59829;BME280;45708;51.848;107.620;2023-07-31T07:56:19;94184.81;;;29.93;44.57
59829;BME280;45708;51.848;107.620;2023-07-31T08:01:21;94189.81;;;29.91;45.39
59829;BME280;45708;51.848;107.620;2023-07-31T08:06:21;94190.19;;;29.89;45.01
59829;BME280;45708;51.848;107.620;2023-07-31T08:11:22;94196.63;;;29.58;46.38
59829;BME280;45708;51.848;107.620;2023-07-31T08:16:23;94184.59;;;29.40;46.59
59829;BME280;45708;51.848;107.620;2023-07-31T08:21:24;94168.28;;;29.40;46.89
59829;BME280;45708;51.848;107.620;2023-07-31T08:26:25;94161.63;;;29.37;47.55
59829;BME280;45708;51.848;107.620;2023-07-31T08:31:26;94164.69;;;29.36;48.00
59829;BME280;45708;51.848;107.620;2023-07-31T08:36:27;94159.91;;;29.49;47.59
59829;BME280;45708;51.848;107.620;2023-07-31T08:41:28;94143.34;;;29.80;47.24
59829;BME280;45708;51.848;107.620;2023-07-31T08:46:29;94116.63;;;30.09;46.40
59829;BME280;45708;51.848;107.620;2023-07-31T08:51:31;94117.41;;;30.36;45.95
59829;BME280;45708;51.848;107.620;2023-07-31T08:56:32;94127.44;;;30.58;45.66
59829;BME280;45708;51.848;107.620;2023-07-31T09:01:37;94134.56;;;30.40;46.17
59829;BME280;45708;51.848;107.620;2023-07-31T09:06:42;94133.53;;;30.48;46.10
59829;BME280;45708;51.848;107.620;2023-07-31T09:11:44;94127.88;;;30.34;46.15
59829;BME280;45708;51.848;107.620;2023-07-31T09:16:55;94124.59;;;29.98;46.35
59829;BME280;45708;51.848;107.620;2023-07-31T09:21:56;94113.56;;;29.64;47.10
59829;BME280;45708;51.848;107.620;2023-07-31T09:26:59;94110.38;;;29.62;46.64
59829;BME280;45708;51.848;107.620;2023-07-31T09:32:00;94118.84;;;29.80;46.31
59829;BME280;45708;51.848;107.620;2023-07-31T09:37:01;94115.91;;;29.89;45.24
59829;BME280;45708;51.848;107.620;2023-07-31T09:42:02;94101.91;;;29.90;44.80
59829;BME280;45708;51.848;107.620;2023-07-31T09:47:03;94108.81;;;30.07;44.65
59829;BME280;45708;51.848;107.620;2023-07-31T09:52:11;94092.56;;;29.65;44.96
59829;BME280;45708;51.848;107.620;2023-07-31T09:57:13;94087.19;;;29.26;45.35
59829;BME280;45708;51.848;107.620;2023-07-31T10:02:23;94093.91;;;28.90;45.93
59829;BME280;45708;51.848;107.620;2023-07-31T10:07:25;94076.28;;;28.45;46.64
59829;BME280;45708;51.848;107.620;2023-07-31T10:12:27;94089.91;;;28.30;46.98
59829;BME280;45708;51.848;107.620;2023-07-31T10:17:29;94087.69;;;28.35;46.74
59829;BME280;45708;51.848;107.620;2023-07-31T10:22:31;94077.69;;;28.39;46.59
59829;BME280;45708;51.848;107.620;2023-07-31T10:27:33;94061.13;;;28.44;46.59
59829;BME280;45708;51.848;107.620;2023-07-31T10:32:37;94051.25;;;28.56;46.65
59829;BME280;45708;51.848;107.620;2023-07-31T10:37:40;94051.84;;;28.65;46.64
59829;BME280;45708;51.848;107.620;2023-07-31T10:42:55;94052.38;;;28.35;47.24
59829;BME280;45708;51.848;107.620;2023-07-31T10:48:13;94045.47;;;28.22;47.37
59829;BME280;45708;51.848;107.620;2023-07-31T10:53:25;94053.63;;;28.22;47.42
59829;BME280;45708;51.848;107.620;2023-07-31T10:58:26;94052.59;;;28.11;47.63
59829;BME280;45708;51.848;107.620;2023-07-31T11:03:42;94058.75;;;28.08;47.30
59829;BME280;45708;51.848;107.620;2023-07-31T11:08:50;94059.63;;;28.12;47.22
59829;BME280;45708;51.848;107.620;2023-07-31T11:13:52;94056.75;;;28.05;47.79
59829;BME280;45708;51.848;107.620;2023-07-31T11:18:54;94055.63;;;27.90;47.56
59829;BME280;45708;51.848;107.620;2023-07-31T11:23:57;94065.13;;;27.65;48.04
59829;BME280;45708;51.848;107.620;2023-07-31T11:28:58;94062.72;;;27.32;48.42
59829;BME280;45708;51.848;107.620;2023-07-31T11:34:06;94056.53;;;26.87;48.38
59829;BME280;45708;51.848;107.620;2023-07-31T11:39:10;94062.19;;;26.54;48.86
59829;BME280;45708;51.848;107.620;2023-07-31T11:44:11;94078.03;;;26.40;49.44
59829;BME280;45708;51.848;107.620;2023-07-31T11:49:12;94086.06;;;26.24;49.43
59829;BME280;45708;51.848;107.620;2023-07-31T11:54:12;94076.28;;;26.07;49.63
59829;BME280;45708;51.848;107.620;2023-07-31T11:59:13;94081.25;;;25.93;50.18
59829;BME280;45708;51.848;107.620;2023-07-31T12:04:14;94089.38;;;25.81;50.53
59829;BME280;45708;51.848;107.620;2023-07-31T12:09:15;94092.75;;;25.66;51.00
59829;BME280;45708;51.848;107.620;2023-07-31T12:14:24;94101.97;;;25.53;50.88
59829;BME280;45708;51.848;107.620;2023-07-31T12:19:25;94099.81;;;25.46;51.34
59829;BME280;45708;51.848;107.620;2023-07-31T12:24:27;94110.72;;;25.37;51.54
59829;BME280;45708;51.848;107.620;2023-07-31T12:29:38;94115.44;;;25.28;51.53
59829;BME280;45708;51.848;107.620;2023-07-31T12:34:42;94116.66;;;25.18;52.08
59829;BME280;45708;51.848;107.620;2023-07-31T12:39:43;94117.75;;;25.05;52.47
59829;BME280;45708;51.848;107.620;2023-07-31T12:44:44;94144.97;;;25.00;52.63
59829;BME280;45708;51.848;107.620;2023-07-31T12:49:45;94145.03;;;24.92;53.21
59829;BME280;45708;51.848;107.620;2023-07-31T12:54:45;94149.00;;;24.73;53.24
59829;BME280;45708;51.848;107.620;2023-07-31T12:59:48;94151.63;;;24.61;53.47
59829;BME280;45708;51.848;107.620;2023-07-31T13:04:50;94154.72;;;24.51;53.83
59829;BME280;45708;51.848;107.620;2023-07-31T13:09:51;94139.31;;;24.31;54.38
59829;BME280;45708;51.848;107.620;2023-07-31T13:14:51;94141.22;;;24.30;54.63
59829;BME280;45708;51.848;107.620;2023-07-31T13:19:52;94127.09;;;24.24;54.98
59829;BME280;45708;51.848;107.620;2023-07-31T13:24:53;94124.31;;;24.12;54.83
59829;BME280;45708;51.848;107.620;2023-07-31T13:29:54;94125.66;;;23.97;55.37
59829;BME280;45708;51.848;107.620;2023-07-31T13:34:55;94123.22;;;23.84;55.83
59829;BME280;45708;51.848;107.620;2023-07-31T13:39:55;94126.59;;;23.72;55.55
59829;BME280;45708;51.848;107.620;2023-07-31T13:44:56;94111.25;;;23.55;56.16
59829;BME280;45708;51.848;107.620;2023-07-31T13:49:57;94119.88;;;23.40;56.48
59829;BME280;45708;51.848;107.620;2023-07-31T13:54:58;94124.03;;;23.29;56.58
59829;BME280;45708;51.848;107.620;2023-07-31T13:59:59;94135.34;;;23.14;56.97
59829;BME280;45708;51.848;107.620;2023-07-31T14:04:59;94110.84;;;22.89;57.70
59829;BME280;45708;51.848;107.620;2023-07-31T14:10:00;94133.16;;;22.90;57.66
59829;BME280;45708;51.848;107.620;2023-07-31T14:15:01;94136.47;;;22.95;57.73
59829;BME280;45708;51.848;107.620;2023-07-31T14:20:02;94119.38;;;22.91;57.63
59829;BME280;45708;51.848;107.620;2023-07-31T14:25:03;94117.31;;;23.05;57.20
59829;BME280;45708;51.848;107.620;2023-07-31T14:30:05;94117.13;;;23.11;57.46
59829;BME280;45708;51.848;107.620;2023-07-31T14:35:06;94110.00;;;23.06;57.56
59829;BME280;45708;51.848;107.620;2023-07-31T14:40:08;94111.44;;;23.03;57.85
59829;BME280;45708;51.848;107.620;2023-07-31T14:45:10;94114.00;;;22.91;58.25
59829;BME280;45708;51.848;107.620;2023-07-31T14:50:11;94097.81;;;22.74;58.65
59829;BME280;45708;51.848;107.620;2023-07-31T14:55:11;94096.41;;;22.59;58.70
59829;BME280;45708;51.848;107.620;2023-07-31T15:00:13;94098.19;;;22.46;59.00
59829;BME280;45708;51.848;107.620;2023-07-31T15:05:13;94114.94;;;22.61;59.07
59829;BME280;45708;51.848;107.620;2023-07-31T15:10:14;94099.13;;;22.51;59.29
59829;BME280;45708;51.848;107.620;2023-07-31T15:15:15;94119.84;;;22.41;59.80
59829;BME280;45708;51.848;107.620;2023-07-31T15:20:16;94114.94;;;22.26;60.05
59829;BME280;45708;51.848;107.620;2023-07-31T15:25:17;94110.38;;;22.27;60.16
59829;BME280;45708;51.848;107.620;2023-07-31T15:30:17;94107.03;;;22.38;60.07
59829;BME280;45708;51.848;107.620;2023-07-31T15:35:18;94099.13;;;22.51;59.97
59829;BME280;45708;51.848;107.620;2023-07-31T15:40:19;94123.19;;;22.56;59.88
59829;BME280;45708;51.848;107.620;2023-07-31T15:45:20;94098.03;;;22.26;60.11
59829;BME280;45708;51.848;107.620;2023-07-31T15:50:21;94130.94;;;22.31;60.40
59829;BME280;45708;51.848;107.620;2023-07-31T15:55:22;94122.16;;;22.00;61.23
59829;BME280;45708;51.848;107.620;2023-07-31T16:00:22;94122.59;;;21.84;61.84
59829;BME280;45708;51.848;107.620;2023-07-31T16:05:23;94122.88;;;21.66;62.35
59829;BME280;45708;51.848;107.620;2023-07-31T16:10:24;94114.50;;;21.67;62.26
59829;BME280;45708;51.848;107.620;2023-07-31T16:15:25;94122.41;;;21.72;62.61
59829;BME280;45708;51.848;107.620;2023-07-31T16:20:26;94104.00;;;21.57;62.83
59829;BME280;45708;51.848;107.620;2023-07-31T16:25:27;94111.66;;;21.72;62.92
59829;BME280;45708;51.848;107.620;2023-07-31T16:30:28;94103.44;;;21.77;62.74
59829;BME280;45708;51.848;107.620;2023-07-31T16:35:29;94105.19;;;21.82;62.71
59829;BME280;45708;51.848;107.620;2023-07-31T16:40:29;94100.09;;;21.72;63.18
59829;BME280;45708;51.848;107.620;2023-07-31T16:45:30;94104.63;;;21.54;63.75
59829;BME280;45708;51.848;107.620;2023-07-31T16:50:31;94087.97;;;21.35;64.31
59829;BME280;45708;51.848;107.620;2023-07-31T16:55:32;94073.81;;;21.20;64.45
59829;BME280;45708;51.848;107.620;2023-07-31T17:00:33;94079.19;;;21.20;64.68
59829;BME280;45708;51.848;107.620;2023-07-31T17:05:34;94069.47;;;21.24;64.83
59829;BME280;45708;51.848;107.620;2023-07-31T17:10:35;94066.63;;;21.30;64.96
59829;BME280;45708;51.848;107.620;2023-07-31T17:15:35;94070.59;;;21.32;64.90
59829;BME280;45708;51.848;107.620;2023-07-31T17:20:36;94051.47;;;21.42;64.89
59829;BME280;45708;51.848;107.620;2023-07-31T17:25:38;94032.25;;;21.49;64.67
59829;BME280;45708;51.848;107.620;2023-07-31T17:30:39;94044.88;;;21.57;64.92
59829;BME280;45708;51.848;107.620;2023-07-31T17:35:40;94040.47;;;21.61;64.96
59829;BME280;45708;51.848;107.620;2023-07-31T17:40:40;94028.13;;;21.60;65.22
59829;BME280;45708;51.848;107.620;2023-07-31T17:45:41;94031.94;;;21.59;65.31
59829;BME280;45708;51.848;107.620;2023-07-31T17:50:42;94031.41;;;21.40;65.73
59829;BME280;45708;51.848;107.620;2023-07-31T17:55:43;94001.53;;;20.93;66.56
59829;BME280;45708;51.848;107.620;2023-07-31T18:00:44;94012.25;;;20.84;66.99
59829;BME280;45708;51.848;107.620;2023-07-31T18:05:44;94024.97;;;20.79;67.14
59829;BME280;45708;51.848;107.620;2023-07-31T18:10:46;94018.50;;;20.80;66.99
59829;BME280;45708;51.848;107.620;2023-07-31T18:15:47;94013.72;;;20.68;67.22
59829;BME280;45708;51.848;107.620;2023-07-31T18:20:48;94005.28;;;20.52;67.66
59829;BME280;45708;51.848;107.620;2023-07-31T18:25:49;94005.91;;;20.49;67.78
59829;BME280;45708;51.848;107.620;2023-07-31T18:30:50;94019.03;;;20.59;67.96
59829;BME280;45708;51.848;107.620;2023-07-31T18:35:55;93991.09;;;20.60;67.78
59829;BME280;45708;51.848;107.620;2023-07-31T18:40:56;93988.69;;;20.50;68.50
59829;BME280;45708;51.848;107.620;2023-07-31T18:45:57;93994.53;;;20.52;69.08
59829;BME280;45708;51.848;107.620;2023-07-31T18:50:58;94001.84;;;20.38;69.38
59829;BME280;45708;51.848;107.620;2023-07-31T18:55:58;94011.59;;;20.34;69.71
59829;BME280;45708;51.848;107.620;2023-07-31T19:00:59;93998.47;;;20.24;69.84
59829;BME280;45708;51.848;107.620;2023-07-31T19:06:04;93998.88;;;20.17;69.86
59829;BME280;45708;51.848;107.620;2023-07-31T19:11:04;93992.47;;;20.04;70.30
59829;BME280;45708;51.848;107.620;2023-07-31T19:16:05;93990.75;;;19.86;70.94
59829;BME280;45708;51.848;107.620;2023-07-31T19:21:06;93990.28;;;19.84;70.93
59829;BME280;45708;51.848;107.620;2023-07-31T19:26:07;94001.56;;;19.81;70.95
59829;BME280;45708;51.848;107.620;2023-07-31T19:31:07;94005.97;;;19.77;70.92
59829;BME280;45708;51.848;107.620;2023-07-31T19:36:08;93998.03;;;19.72;70.78
59829;BME280;45708;51.848;107.620;2023-07-31T19:41:10;94003.28;;;19.77;70.71
59829;BME280;45708;51.848;107.620;2023-07-31T19:46:11;93993.28;;;19.69;71.23
59829;BME280;45708;51.848;107.620;2023-07-31T19:51:12;94004.81;;;19.56;71.58
59829;BME280;45708;51.848;107.620;2023-07-31T19:56:13;93995.09;;;19.46;72.16
59829;BME280;45708;51.848;107.620;2023-07-31T20:01:14;93994.50;;;19.35;72.86
59829;BME280;45708;51.848;107.620;2023-07-31T20:06:14;94000.41;;;19.24;73.41
59829;BME280;45708;51.848;107.620;2023-07-31T20:11:15;93994.94;;;19.15;73.35
59829;BME280;45708;51.848;107.620;2023-07-31T20:16:20;93984.44;;;19.05;73.93
59829;BME280;45708;51.848;107.620;2023-07-31T20:21:20;93981.97;;;18.95;74.72
59829;BME280;45708;51.848;107.620;2023-07-31T20:26:21;93998.63;;;19.05;74.73
59829;BME280;45708;51.848;107.620;2023-07-31T20:31:22;93990.78;;;19.09;74.54
59829;BME280;45708;51.848;107.620;2023-07-31T20:36:23;93996.31;;;18.99;74.98
59829;BME280;45708;51.848;107.620;2023-07-31T20:41:23;93996.03;;;18.87;75.25
59829;BME280;45708;51.848;107.620;2023-07-31T20:46:24;93997.13;;;18.86;75.28
59829;BME280;45708;51.848;107.620;2023-07-31T20:51:25;93996.91;;;18.82;75.15
59829;BME280;45708;51.848;107.620;2023-07-31T20:56:26;93993.44;;;18.68;75.48
59829;BME280;45708;51.848;107.620;2023-07-31T21:01:26;94003.28;;;18.53;75.36
59829;BME280;45708;51.848;107.620;2023-07-31T21:06:27;94005.78;;;18.50;75.46
59829;BME280;45708;51.848;107.620;2023-07-31T21:11:29;94003.97;;;18.45;75.93
59829;BME280;45708;51.848;107.620;2023-07-31T21:16:30;94004.72;;;18.32;76.42
59829;BME280;45708;51.848;107.620;2023-07-31T21:21:30;94012.78;;;18.13;76.66
59829;BME280;45708;51.848;107.620;2023-07-31T21:26:31;94013.38;;;18.10;77.27
59829;BME280;45708;51.848;107.620;2023-07-31T21:31:32;94008.63;;;18.07;77.59
59829;BME280;45708;51.848;107.620;2023-07-31T21:36:33;94021.19;;;18.07;77.74
59829;BME280;45708;51.848;107.620;2023-07-31T21:41:34;94023.56;;;18.08;78.13
59829;BME280;45708;51.848;107.620;2023-07-31T21:46:34;94015.56;;;18.08;78.37
59829;BME280;45708;51.848;107.620;2023-07-31T21:51:35;94035.19;;;18.17;78.18
59829;BME280;45708;51.848;107.620;2023-07-31T21:56:36;94035.03;;;18.28;78.00
59829;BME280;45708;51.848;107.620;2023-07-31T22:01:37;94013.63;;;18.28;78.35
59829;BME280;45708;51.848;107.620;2023-07-31T22:06:37;94022.81;;;18.54;77.88
59829;BME280;45708;51.848;107.620;2023-07-31T22:11:38;94033.19;;;19.02;77.79
59829;BME280;45708;51.848;107.620;2023-07-31T22:16:39;94020.69;;;19.38;76.67
59829;BME280;45708;51.848;107.620;2023-07-31T22:21:40;94033.97;;;19.71;76.11
59829;BME280;45708;51.848;107.620;2023-07-31T22:26:41;94030.19;;;20.08;75.44
59829;BME280;45708;51.848;107.620;2023-07-31T22:31:41;94023.22;;;20.43;74.72
59829;BME280;45708;51.848;107.620;2023-07-31T22:36:42;94028.09;;;20.63;74.33
59829;BME280;45708;51.848;107.620;2023-07-31T22:41:43;94019.97;;;20.32;74.71
59829;BME280;45708;51.848;107.620;2023-07-31T22:46:44;94020.31;;;20.17;74.96
59829;BME280;45708;51.848;107.620;2023-07-31T22:51:44;94031.97;;;20.13;75.27
59829;BME280;45708;51.848;107.620;2023-07-31T22:56:45;94038.38;;;20.25;75.04
59829;BME280;45708;51.848;107.620;2023-07-31T23:01:46;94042.47;;;20.45;74.50
59829;BME280;45708;51.848;107.620;2023-07-31T23:06:47;94043.44;;;20.49;74.17
59829;BME280;45708;51.848;107.620;2023-07-31T23:11:47;94037.13;;;20.45;74.52
59829;BME280;45708;51.848;107.620;2023-07-31T23:16:48;94033.38;;;20.32;74.57
59829;BME280;45708;51.848;107.620;2023-07-31T23:21:49;94036.59;;;20.21;75.06
59829;BME280;45708;51.848;107.620;2023-07-31T23:26:50;94014.47;;;20.38;74.37
59829;BME280;45708;51.848;107.620;2023-07-31T23:31:51;94011.41;;;20.44;74.27
59829;BME280;45708;51.848;107.620;2023-07-31T23:36:52;94003.16;;;20.72;73.42
59829;BME280;45708;51.848;107.620;2023-07-31T23:41:52;94007.72;;;21.02;72.98
59829;BME280;45708;51.848;107.620;2023-07-31T23:46:53;93991.81;;;21.14;72.50
59829;BME280;45708;51.848;107.620;2023-07-31T23:51:54;94003.66;;;21.70;71.39
59829;BME280;45708;51.848;107.620;2023-07-31T23:56:55;93994.34;;;21.76;71.20
